West Concord, MN

8:01 PM CST on December 20, 2014 (GMT -0600)
Civil Response Firearms Training LLC | Change Station
CLOSE
Current Station
Personal Weather Station
Location: Dodge Center, MN
Elevation: 1227 ft
Nearby Weather Stations

Elev 1227 ft 44.04 °N, 92.86 °W | Updated 9 minutes ago

Overcast
Overcast
29.5 °F
Feels Like 21 °F
N
9.4
Wind Variable Wind from South

Today
High -- | Low -- °F
--% Chance of Precip.
Yesterday
High -- | Low -- °F
Precip. -- in
7:43 AM 4:35 PM
Waning Crescent, 1% visible
Pressure 30.11 in
Visibility 5.0 miles
Clouds Overcast 1100 ft
Windchill 21 °F
Dew Point 28 °F
Humidity 95%
Rainfall 0.00 in
Snow Depth Not available.
UV 0 out of 12
Pollen .10 out of 12
Air Quality Not available.
Flu Activity Not available.
METAR KTOB 210154Z AUTO 18010KT 5SM BR OVC011 M01/M02 A3011 RMK AO2

More Conditions Fewer Conditions

Pressure 30.11 in
Visibility 5.0 miles
Clouds Overcast 1100 ft
Windchill 21 °F
Dew Point 28 °F
Humidity 95%
Rainfall 0.00 in
Snow Depth Not available.
UV 0 out of 12
Pollen .10 out of 12
Air Quality Not available.
Flu Activity Not available.
METAR KTOB 210154Z AUTO 18010KT 5SM BR OVC011 M01/M02 A3011 RMK AO2

More Conditions Fewer Conditions

10-Day Weather Forecast

Almanac

Astronomy

Dec. 20, 2014 Rise Set
Actual Time
Civil Twilight
Nautical Twilight
Astronomical Twilight
Moon
Length of Visible Light
Length of Day
Tomorrow will be .
, % of the Moon is Illuminated

Today's Extremes

State Highs State Lows

Community

WunderPhotos

Upload Photos

1,779,346 photos uploaded!

WunderBlogs® & News

Nearby

Air Quality

  Air Quality AQ Index Pollutant
Not available.

Snow Depth

Station Depth Elevation

Earthquake Activity

City Distance Mag. Time & Date
Minimum magnitude displayed is 2.5.

Coastal Water Temperatures

Place Temperature

Nearby Weather Stations